createdAt,value
2019-05-09T00:01:33.461Z,100.00
2019-05-09T00:04:27.022Z,100.00
2019-05-09T00:07:24.000Z,100.00
2019-05-09T00:10:37.590Z,100.00
2019-05-09T00:13:17.108Z,100.00
2019-05-09T00:16:14.714Z,100.00
2019-05-09T00:19:09.227Z,100.00
2019-05-09T00:22:05.912Z,100.00
2019-05-09T00:25:15.338Z,100.00
2019-05-09T00:28:15.274Z,100.00
2019-05-09T00:31:23.897Z,100.00
2019-05-09T00:34:19.342Z,100.00
2019-05-09T00:37:16.813Z,100.00
2019-05-09T00:40:23.906Z,100.00
2019-05-09T00:43:19.565Z,100.00
2019-05-09T00:46:30.127Z,100.00
2019-05-09T00:49:36.838Z,100.00
2019-05-09T00:52:33.990Z,100.00
2019-05-09T00:55:29.466Z,100.00
2019-05-09T00:58:27.210Z,100.00
2019-05-09T01:01:24.284Z,100.00
2019-05-09T01:04:18.619Z,100.00
2019-05-09T01:07:15.054Z,100.00
2019-05-09T01:10:13.418Z,100.00
2019-05-09T01:13:08.604Z,100.00
2019-05-09T01:16:04.782Z,100.00
2019-05-09T01:19:03.674Z,100.00
2019-05-09T01:21:59.061Z,100.00
2019-05-09T01:24:54.910Z,100.00
2019-05-09T01:27:54.073Z,100.00
2019-05-09T01:30:49.373Z,100.00
2019-05-09T01:33:53.991Z,100.00
2019-05-09T01:37:03.475Z,100.00
2019-05-09T01:39:57.360Z,100.00
2019-05-09T01:42:53.989Z,100.00
2019-05-09T01:45:49.833Z,100.00
2019-05-09T01:48:47.681Z,100.00
2019-05-09T01:51:44.454Z,100.00
2019-05-09T01:54:40.105Z,100.00
2019-05-09T01:57:36.999Z,100.00
2019-05-09T02:00:33.963Z,100.00
2019-05-09T02:03:33.483Z,100.00
2019-05-09T02:06:28.067Z,100.00
2019-05-09T02:09:26.319Z,100.00
2019-05-09T02:12:24.499Z,100.00
2019-05-09T02:15:39.082Z,100.00
2019-05-09T02:18:45.867Z,100.00
2019-05-09T02:21:43.702Z,100.00
2019-05-09T02:24:39.043Z,100.00
2019-05-09T02:27:34.821Z,100.00
2019-05-09T02:30:35.906Z,100.00
2019-05-09T02:33:28.470Z,100.00
2019-05-09T02:36:25.173Z,100.00
2019-05-09T02:39:21.812Z,100.00
2019-05-09T02:42:29.739Z,100.00
2019-05-09T02:45:30.535Z,100.00
2019-05-09T02:48:28.733Z,100.00
2019-05-09T02:51:33.064Z,100.00
2019-05-09T02:54:29.975Z,100.00
2019-05-09T02:57:29.075Z,100.00
2019-05-09T03:00:32.736Z,100.00
2019-05-09T03:03:34.332Z,100.00
2019-05-09T03:06:30.100Z,100.00
2019-05-09T03:09:29.083Z,100.00
2019-05-09T03:12:34.439Z,100.00
2019-05-09T03:15:21.347Z,100.00
2019-05-09T03:18:18.432Z,100.00
2019-05-09T03:21:29.650Z,100.00
2019-05-09T03:24:23.319Z,100.00
2019-05-09T03:27:22.142Z,100.00
2019-05-09T03:30:20.941Z,100.00
2019-05-09T03:33:19.830Z,100.00
2019-05-09T03:36:13.224Z,100.00
2019-05-09T03:39:08.856Z,100.00
2019-05-09T03:42:07.865Z,100.00
2019-05-09T03:45:02.714Z,100.00
2019-05-09T03:48:01.942Z,100.00
2019-05-09T03:50:59.848Z,100.00
2019-05-09T03:53:57.576Z,100.00
2019-05-09T03:56:54.224Z,100.00
2019-05-09T03:59:51.920Z,100.00
2019-05-09T04:02:47.609Z,100.00
2019-05-09T04:05:58.495Z,100.00
2019-05-09T04:08:39.967Z,100.00
2019-05-09T04:11:38.863Z,100.00
2019-05-09T04:14:34.321Z,100.00
2019-05-09T04:17:31.954Z,100.00
2019-05-09T04:20:27.804Z,100.00
2019-05-09T04:23:24.392Z,100.00
2019-05-09T04:26:30.796Z,100.00
2019-05-09T04:29:28.592Z,100.00
2019-05-09T04:32:27.374Z,100.00
2019-05-09T04:35:23.343Z,100.00
2019-05-09T04:38:19.145Z,100.00
2019-05-09T04:41:23.721Z,100.00
2019-05-09T04:44:17.160Z,100.00
2019-05-09T04:47:09.121Z,100.00
2019-05-09T04:50:04.768Z,100.00
2019-05-09T04:53:01.518Z,100.00
2019-05-09T04:55:59.867Z,100.00
2019-05-09T04:59:01.932Z,100.00
2019-05-09T05:02:23.833Z,100.00
2019-05-09T05:05:19.522Z,100.00
2019-05-09T05:08:18.150Z,100.00
2019-05-09T05:11:13.756Z,100.00
2019-05-09T05:14:10.237Z,100.00
2019-05-09T05:17:11.603Z,100.00
2019-05-09T05:20:08.405Z,100.00
2019-05-09T05:23:23.271Z,100.00
2019-05-09T05:26:20.186Z,100.00
2019-05-09T05:29:19.852Z,100.00
2019-05-09T05:32:19.110Z,100.00
2019-05-09T05:35:18.561Z,100.00
2019-05-09T05:38:19.709Z,100.00
2019-05-09T05:41:20.745Z,100.00
2019-05-09T05:44:17.769Z,100.00
2019-05-09T05:47:29.360Z,100.00
2019-05-09T05:50:23.882Z,100.00
2019-05-09T05:53:19.815Z,100.00
2019-05-09T05:56:17.532Z,100.00
2019-05-09T05:59:12.343Z,100.00
2019-05-09T06:02:10.254Z,100.00
2019-05-09T06:05:08.307Z,100.00
2019-05-09T06:08:08.147Z,100.00
2019-05-09T06:11:01.922Z,100.00
2019-05-09T06:14:08.124Z,100.00
2019-05-09T06:16:54.461Z,100.00
2019-05-09T06:19:53.263Z,100.00
2019-05-09T06:22:50.053Z,100.00
2019-05-09T06:26:01.131Z,100.00
2019-05-09T06:28:59.631Z,100.00
2019-05-09T06:31:58.482Z,100.00
2019-05-09T06:34:54.419Z,99.80
2019-05-09T06:37:52.993Z,98.77
2019-05-09T06:41:00.064Z,98.63
2019-05-09T06:44:14.371Z,97.82
2019-05-09T06:47:08.073Z,94.99
2019-05-09T06:50:07.940Z,91.53
2019-05-09T06:53:07.836Z,89.75
2019-05-09T06:56:02.152Z,89.87
2019-05-09T06:58:59.718Z,88.51
2019-05-09T07:02:08.370Z,87.84
2019-05-09T07:05:11.317Z,88.06
2019-05-09T07:08:22.198Z,86.32
2019-05-09T07:11:19.322Z,84.86
2019-05-09T07:14:26.697Z,84.99
2019-05-09T07:17:11.948Z,84.85
2019-05-09T07:20:09.282Z,83.78
2019-05-09T07:23:08.421Z,82.15
2019-05-09T07:26:17.844Z,81.31
2019-05-09T07:29:17.841Z,80.78
2019-05-09T07:32:19.352Z,81.67
2019-05-09T07:35:18.580Z,79.61
2019-05-09T07:38:17.182Z,76.19
2019-05-09T07:41:11.724Z,76.25
2019-05-09T07:44:18.237Z,73.27
2019-05-09T07:47:14.574Z,75.76
2019-05-09T07:50:11.473Z,75.97
2019-05-09T07:53:09.035Z,75.97
2019-05-09T07:56:07.935Z,74.42
2019-05-09T07:59:03.815Z,72.64
2019-05-09T08:02:00.204Z,74.58
2019-05-09T08:04:58.159Z,72.39
2019-05-09T08:07:54.801Z,69.25
2019-05-09T08:10:52.234Z,68.84
2019-05-09T08:13:49.499Z,65.53
2019-05-09T08:16:47.618Z,64.81
2019-05-09T08:19:44.385Z,66.60
2019-05-09T08:22:46.101Z,67.30
2019-05-09T08:25:38.986Z,65.42
2019-05-09T08:28:38.767Z,65.26
2019-05-09T08:31:33.597Z,66.83
2019-05-09T08:34:32.308Z,67.57
2019-05-09T08:37:29.032Z,64.90
2019-05-09T08:40:28.360Z,60.37
2019-05-09T08:43:23.986Z,63.62
2019-05-09T08:46:22.435Z,63.17
2019-05-09T08:49:18.723Z,63.36
2019-05-09T08:52:21.223Z,62.98
2019-05-09T08:55:19.827Z,61.69
2019-05-09T08:58:19.612Z,64.27
2019-05-09T09:01:13.879Z,61.98
2019-05-09T09:04:11.218Z,60.66
2019-05-09T09:07:08.665Z,59.36
2019-05-09T09:10:05.021Z,57.08
2019-05-09T09:13:08.800Z,58.94
2019-05-09T09:16:15.755Z,55.55
2019-05-09T09:19:01.430Z,54.91
2019-05-09T09:22:00.599Z,56.63
2019-05-09T09:24:58.443Z,57.30
2019-05-09T09:27:54.280Z,53.69
2019-05-09T09:30:51.503Z,55.28
2019-05-09T09:33:48.134Z,55.09
2019-05-09T09:36:45.068Z,56.30
2019-05-09T09:39:44.658Z,56.30
2019-05-09T09:42:39.926Z,55.17
2019-05-09T09:45:37.876Z,56.15
2019-05-09T09:48:34.926Z,56.87
2019-05-09T09:51:32.091Z,55.89
2019-05-09T09:54:28.318Z,57.47
2019-05-09T09:57:25.436Z,56.75
2019-05-09T10:00:39.843Z,53.95
2019-05-09T10:03:37.210Z,55.78
2019-05-09T10:06:35.185Z,55.61
2019-05-09T10:09:31.394Z,56.39
2019-05-09T10:12:32.017Z,53.11
2019-05-09T10:15:38.395Z,52.13
2019-05-09T10:18:45.804Z,51.82
2019-05-09T10:21:48.446Z,50.59
2019-05-09T10:24:42.224Z,50.64
2019-05-09T10:27:40.617Z,52.29
2019-05-09T10:30:38.431Z,51.33
2019-05-09T10:33:37.564Z,51.92
2019-05-09T10:36:33.716Z,51.82
2019-05-09T10:39:29.781Z,51.88
2019-05-09T10:42:40.404Z,51.97
2019-05-09T10:45:52.756Z,50.42
2019-05-09T10:48:49.103Z,48.55
2019-05-09T10:51:45.408Z,50.32
2019-05-09T10:54:44.070Z,48.60
2019-05-09T10:57:43.249Z,48.64
2019-05-09T11:00:39.518Z,49.55
2019-05-09T11:03:41.780Z,48.70
2019-05-09T11:06:39.237Z,50.69
2019-05-09T11:09:39.250Z,51.41
2019-05-09T11:12:37.381Z,51.83
2019-05-09T11:15:37.384Z,50.29
2019-05-09T11:18:32.698Z,50.39
2019-05-09T11:21:28.889Z,52.83
2019-05-09T11:24:40.628Z,51.73
2019-05-09T11:27:22.562Z,51.27
2019-05-09T11:30:21.146Z,52.86
2019-05-09T11:33:18.320Z,55.01
2019-05-09T11:36:20.841Z,57.93
2019-05-09T11:39:34.115Z,58.28
2019-05-09T11:42:12.892Z,58.97
2019-05-09T11:45:10.532Z,62.01
2019-05-09T11:48:08.341Z,65.00
2019-05-09T11:51:05.384Z,58.97
2019-05-09T11:54:02.744Z,62.20
2019-05-09T11:56:59.045Z,63.13
2019-05-09T11:59:57.889Z,61.91
2019-05-09T12:02:52.491Z,61.82
2019-05-09T12:05:51.106Z,60.31
2019-05-09T12:08:48.602Z,59.65
2019-05-09T12:11:44.946Z,58.63
2019-05-09T12:14:42.092Z,56.93
2019-05-09T12:17:53.025Z,57.37
2019-05-09T12:20:39.466Z,55.62
2019-05-09T12:23:37.653Z,54.79
2019-05-09T12:26:32.720Z,56.92
2019-05-09T12:29:31.004Z,54.68
2019-05-09T12:32:28.407Z,57.29
2019-05-09T12:35:25.179Z,54.02
2019-05-09T12:38:22.406Z,55.04
2019-05-09T12:41:19.909Z,56.31
2019-05-09T12:44:18.608Z,56.29
2019-05-09T12:47:18.995Z,53.23
2019-05-09T12:50:14.420Z,53.27
2019-05-09T12:53:10.614Z,50.93
2019-05-09T12:56:14.080Z,53.09
2019-05-09T12:59:11.359Z,51.29
2019-05-09T13:02:07.362Z,53.25
2019-05-09T13:05:04.893Z,50.47
2019-05-09T13:08:03.229Z,48.56
2019-05-09T13:11:02.485Z,50.40
2019-05-09T13:13:57.846Z,49.32
2019-05-09T13:17:08.993Z,49.03
2019-05-09T13:20:07.983Z,49.77
2019-05-09T13:23:01.867Z,50.70
2019-05-09T13:25:58.729Z,49.45
2019-05-09T13:28:55.730Z,48.76
2019-05-09T13:31:53.047Z,51.09
2019-05-09T13:34:50.408Z,48.38
2019-05-09T13:37:49.040Z,46.72
2019-05-09T13:40:53.023Z,51.27
2019-05-09T13:43:47.888Z,49.45
2019-05-09T13:46:40.541Z,48.34
2019-05-09T13:49:39.619Z,47.28
2019-05-09T13:52:38.052Z,46.42
2019-05-09T13:55:33.673Z,48.64
2019-05-09T13:58:31.023Z,46.03
2019-05-09T14:01:28.482Z,45.38
2019-05-09T14:04:28.399Z,43.29
2019-05-09T14:07:23.542Z,43.04
2019-05-09T14:10:20.775Z,43.02
2019-05-09T14:13:19.087Z,44.42
2019-05-09T14:16:19.795Z,42.82
2019-05-09T14:19:30.073Z,43.55
2019-05-09T14:22:08.481Z,45.61
2019-05-09T14:25:07.287Z,43.46
2019-05-09T14:28:02.355Z,45.13
2019-05-09T14:30:59.681Z,41.58
2019-05-09T14:33:56.062Z,39.64
2019-05-09T14:36:58.585Z,39.88
2019-05-09T14:39:58.566Z,41.28
2019-05-09T14:42:51.896Z,41.33
2019-05-09T14:45:49.355Z,38.44
2019-05-09T14:48:48.175Z,39.47
2019-05-09T14:51:44.785Z,41.37
2019-05-09T14:54:41.286Z,41.28
2019-05-09T14:57:39.167Z,43.29
2019-05-09T15:00:38.530Z,45.53
2019-05-09T15:03:33.639Z,47.77
2019-05-09T15:06:30.970Z,57.36
2019-05-09T15:09:29.391Z,64.21
2019-05-09T15:12:28.480Z,68.46
2019-05-09T15:15:22.794Z,70.98
2019-05-09T15:18:20.225Z,71.72
2019-05-09T15:21:18.913Z,73.27
2019-05-09T15:24:14.671Z,63.06
2019-05-09T15:27:11.703Z,63.88
2019-05-09T15:30:07.589Z,63.93
2019-05-09T15:33:08.201Z,62.03
2019-05-09T15:36:02.149Z,56.84
2019-05-09T15:38:59.428Z,57.13
2019-05-09T15:41:58.040Z,52.37
2019-05-09T15:44:53.248Z,53.23
2019-05-09T15:47:50.589Z,52.79
2019-05-09T15:50:48.167Z,54.87
2019-05-09T15:53:48.508Z,56.50
2019-05-09T15:56:44.278Z,54.95
2019-05-09T15:59:41.150Z,53.04
2019-05-09T16:02:39.244Z,54.62
2019-05-09T16:05:35.195Z,52.97
2019-05-09T16:08:32.676Z,52.80
2019-05-09T16:11:30.240Z,54.20
2019-05-09T16:14:27.840Z,54.75
2019-05-09T16:17:23.840Z,56.04
2019-05-09T16:20:36.390Z,58.57
2019-05-09T16:23:20.738Z,59.66
2019-05-09T16:26:18.088Z,62.98
2019-05-09T16:29:13.921Z,67.48
2019-05-09T16:32:10.294Z,70.48
2019-05-09T16:35:07.910Z,71.82
2019-05-09T16:38:07.881Z,73.32
2019-05-09T16:41:00.138Z,75.63
2019-05-09T16:43:58.753Z,78.06
2019-05-09T16:46:57.506Z,77.47
2019-05-09T16:49:52.447Z,77.31
2019-05-09T16:52:49.807Z,75.63
2019-05-09T16:55:47.966Z,75.61
2019-05-09T16:58:45.132Z,78.42
2019-05-09T17:01:46.209Z,76.17
2019-05-09T17:04:39.548Z,75.91
2019-05-09T17:07:35.642Z,75.42
2019-05-09T17:10:32.122Z,74.73
2019-05-09T17:13:29.162Z,77.30
2019-05-09T17:16:25.254Z,78.58
2019-05-09T17:19:22.529Z,79.53
2019-05-09T17:22:38.504Z,81.03
2019-05-09T17:25:38.312Z,80.39
2019-05-09T17:28:32.820Z,79.34
2019-05-09T17:31:31.351Z,80.49
2019-05-09T17:34:28.891Z,78.75
2019-05-09T17:37:28.580Z,79.73
2019-05-09T17:40:24.180Z,79.77
2019-05-09T17:43:20.178Z,80.18
2019-05-09T17:46:19.151Z,80.21
2019-05-09T17:49:14.277Z,80.61
2019-05-09T17:52:11.477Z,82.85
2019-05-09T17:55:08.014Z,82.66
2019-05-09T17:58:09.129Z,84.83
2019-05-09T18:01:07.894Z,84.88
2019-05-09T18:04:03.179Z,86.08
2019-05-09T18:07:00.605Z,87.06
2019-05-09T18:09:59.024Z,86.71
2019-05-09T18:12:58.643Z,87.25
2019-05-09T18:15:53.769Z,87.75
2019-05-09T18:18:50.218Z,87.06
2019-05-09T18:21:51.246Z,87.77
2019-05-09T18:24:45.331Z,87.42
2019-05-09T18:27:42.051Z,86.56
2019-05-09T18:30:39.438Z,85.93
2019-05-09T18:33:39.626Z,85.55
2019-05-09T18:36:38.211Z,84.34
2019-05-09T18:39:32.473Z,84.59
2019-05-09T18:42:30.664Z,83.31
2019-05-09T18:45:28.427Z,83.83
2019-05-09T18:48:23.403Z,84.28
2019-05-09T18:51:21.178Z,84.48
2019-05-09T18:54:17.260Z,84.54
2019-05-09T18:57:14.679Z,84.98
2019-05-09T19:00:12.012Z,84.99
2019-05-09T19:03:10.409Z,85.82
2019-05-09T19:06:07.552Z,85.81
2019-05-09T19:09:04.119Z,86.20
2019-05-09T19:12:01.204Z,85.42
2019-05-09T19:14:57.558Z,85.75
2019-05-09T19:18:07.323Z,85.24
2019-05-09T19:21:07.915Z,85.63
2019-05-09T19:24:06.380Z,85.68
2019-05-09T19:27:03.739Z,85.35
2019-05-09T19:29:59.987Z,85.93
2019-05-09T19:32:58.176Z,85.66
2019-05-09T19:35:54.702Z,84.92
2019-05-09T19:38:52.111Z,84.88
2019-05-09T19:41:50.477Z,84.70
2019-05-09T19:44:46.519Z,84.53
2019-05-09T19:47:43.844Z,84.46
2019-05-09T19:50:39.913Z,84.28
2019-05-09T19:53:38.035Z,83.75
2019-05-09T19:56:35.215Z,83.42
2019-05-09T19:59:30.988Z,82.61
2019-05-09T20:02:27.723Z,82.82
2019-05-09T20:05:23.634Z,82.55
2019-05-09T20:08:30.485Z,81.39
2019-05-09T20:11:34.601Z,81.21
2019-05-09T20:14:35.894Z,81.69
2019-05-09T20:17:32.594Z,81.58
2019-05-09T20:20:28.068Z,81.85
2019-05-09T20:23:27.047Z,81.75
2019-05-09T20:26:23.872Z,81.82
2019-05-09T20:29:20.764Z,82.49
2019-05-09T20:32:16.331Z,82.33
2019-05-09T20:35:13.494Z,82.27
2019-05-09T20:38:10.584Z,82.95
2019-05-09T20:41:13.597Z,83.02
2019-05-09T20:44:11.151Z,83.11
2019-05-09T20:47:09.159Z,83.41
2019-05-09T20:50:06.142Z,83.25
2019-05-09T20:53:09.613Z,82.70
2019-05-09T20:55:58.924Z,82.78
2019-05-09T20:58:56.211Z,82.50
2019-05-09T21:01:53.137Z,82.51
2019-05-09T21:04:51.655Z,82.66
2019-05-09T21:07:51.555Z,82.78
2019-05-09T21:10:53.466Z,82.72
2019-05-09T21:13:51.177Z,82.84
2019-05-09T21:16:54.918Z,82.97
2019-05-09T21:19:50.755Z,82.81
2019-05-09T21:22:48.328Z,82.69
2019-05-09T21:25:44.291Z,82.37
2019-05-09T21:28:46.911Z,82.82
2019-05-09T21:31:37.867Z,82.34
2019-05-09T21:34:35.890Z,82.00
2019-05-09T21:37:31.503Z,82.64
2019-05-09T21:40:28.708Z,81.85
2019-05-09T21:43:24.951Z,81.71
2019-05-09T21:46:20.231Z,81.87
2019-05-09T21:49:17.373Z,82.02
2019-05-09T21:52:12.875Z,81.98
2019-05-09T21:55:10.688Z,82.40
2019-05-09T21:58:07.325Z,82.60
2019-05-09T22:01:05.256Z,82.87
2019-05-09T22:04:02.785Z,82.60
2019-05-09T22:06:57.735Z,82.69
2019-05-09T22:09:54.760Z,83.31
2019-05-09T22:12:50.298Z,83.71
2019-05-09T22:15:48.154Z,83.33
2019-05-09T22:18:44.607Z,83.02
2019-05-09T22:21:39.866Z,82.74
2019-05-09T22:24:36.734Z,82.78
2019-05-09T22:27:31.859Z,83.50
2019-05-09T22:30:28.526Z,84.81
2019-05-09T22:33:30.712Z,85.17
2019-05-09T22:36:27.601Z,85.38
2019-05-09T22:39:24.422Z,85.40
2019-05-09T22:42:20.958Z,85.61
2019-05-09T22:45:17.646Z,85.61
2019-05-09T22:48:14.340Z,85.38
2019-05-09T22:51:12.138Z,85.75
2019-05-09T22:54:12.801Z,86.21
2019-05-09T22:57:04.426Z,86.77
2019-05-09T23:00:02.667Z,87.05
2019-05-09T23:02:57.911Z,87.55
2019-05-09T23:05:56.473Z,88.05
2019-05-09T23:08:57.337Z,87.64
2019-05-09T23:11:53.959Z,87.84
2019-05-09T23:14:51.248Z,88.08
2019-05-09T23:17:47.036Z,88.23
2019-05-09T23:21:01.773Z,90.80
2019-05-09T23:24:27.979Z,94.20
2019-05-09T23:27:12.182Z,96.52
2019-05-09T23:30:09.763Z,96.88
2019-05-09T23:33:04.764Z,97.13
2019-05-09T23:36:02.330Z,96.44
2019-05-09T23:39:10.190Z,96.89
2019-05-09T23:42:06.948Z,96.60
2019-05-09T23:45:02.848Z,95.62
2019-05-09T23:48:00.400Z,96.01
2019-05-09T23:50:58.237Z,95.37
2019-05-09T23:53:49.001Z,95.21
2019-05-09T23:56:57.495Z,95.60
